Time;durP1;ratioP1;P1;durP2;ratioP2;P2;SDS_P1;SDS_P2;PMS_P1;PMS_P2;Temp;Humidity;BMP_temperature;BMP_pressure;BME280_temperature;BME280_humidity;BME280_pressure;Samples;Min_cycle;Max_cycle;Signal;HPM_P1;HPM_P2
2022/04/16 00:02:16;;;;;;;19.60;11.57;;;9.20;71.40;;;;;;9174835;19;20025;-72
2022/04/16 00:05:24;;;;;;;21.20;10.40;;;9.10;71.40;;;;;;9180459;19;20022;-71
2022/04/16 00:08:32;;;;;;;21.15;11.75;;;9.10;71.50;;;;;;9178279;19;20022;-70
2022/04/16 00:11:41;;;;;;;23.38;12.00;;;9.10;71.60;;;;;;9176967;19;20010;-71
2022/04/16 00:14:49;;;;;;;20.40;12.00;;;9.00;71.60;;;;;;9181747;19;20019;-70
2022/04/16 00:18:02;;;;;;;17.95;11.05;;;9.00;71.70;;;;;;9180757;19;20038;-70
2022/04/16 00:21:12;;;;;;;18.38;11.13;;;8.90;71.60;;;;;;9181851;19;20030;-70
2022/04/16 00:24:17;;;;;;;21.08;12.63;;;8.90;71.70;;;;;;9180399;19;20036;-70
2022/04/16 00:27:22;;;;;;;19.30;11.23;;;8.90;71.80;;;;;;9178038;19;20014;-70
2022/04/16 00:30:35;;;;;;;22.00;11.93;;;8.90;71.80;;;;;;9178242;19;20015;-71
2022/04/16 00:33:40;;;;;;;23.83;11.60;;;8.80;71.80;;;;;;9178078;19;20687;-71
2022/04/16 00:36:48;;;;;;;29.02;12.55;;;8.80;71.90;;;;;;9179183;19;20082;-70
2022/04/16 00:39:55;;;;;;;18.80;11.43;;;8.70;71.90;;;;;;9181349;19;20018;-70
2022/04/16 00:43:00;;;;;;;22.83;11.57;;;8.70;72.00;;;;;;9178142;19;20078;-70
2022/04/16 00:46:06;;;;;;;18.60;11.27;;;8.70;72.10;;;;;;9176600;19;20021;-70
2022/04/16 00:49:14;;;;;;;24.95;12.57;;;8.60;72.00;;;;;;9179923;19;20110;-69
2022/04/16 00:52:23;;;;;;;26.23;12.55;;;8.60;72.10;;;;;;9179410;19;20022;-70
2022/04/16 00:55:34;;;;;;;23.92;12.27;;;8.60;72.20;;;;;;9179100;19;20025;-69
2022/04/16 00:58:42;;;;;;;19.42;12.13;;;8.60;72.20;;;;;;9177094;19;20121;-69
2022/04/16 01:01:50;;;;;;;21.70;12.07;;;8.50;72.30;;;;;;9173693;19;20026;-70
2022/04/16 01:04:57;;;;;;;19.88;11.13;;;8.50;72.40;;;;;;9176153;19;20353;-69
2022/04/16 01:08:08;;;;;;;21.08;12.45;;;8.40;72.30;;;;;;9177724;19;20025;-72
2022/04/16 01:11:14;;;;;;;24.90;13.80;;;8.40;72.40;;;;;;9178554;19;20684;-70
2022/04/16 01:14:21;;;;;;;26.98;11.93;;;8.40;72.50;;;;;;9179418;19;20021;-70
2022/04/16 01:17:26;;;;;;;23.20;12.98;;;8.30;72.50;;;;;;9177111;19;20930;-70
2022/04/16 01:20:38;;;;;;;20.98;13.15;;;8.30;72.60;;;;;;9178489;19;20018;-70
2022/04/16 01:23:46;;;;;;;22.13;13.45;;;8.30;72.70;;;;;;9175879;19;20014;-69
2022/04/16 01:26:52;;;;;;;24.65;12.93;;;8.30;72.80;;;;;;9174191;19;20376;-70
2022/04/16 01:30:02;;;;;;;24.15;13.23;;;8.20;72.80;;;;;;9172744;19;20022;-70
2022/04/16 01:33:08;;;;;;;29.50;14.20;;;8.20;72.90;;;;;;9178406;19;20022;-72
2022/04/16 01:36:13;;;;;;;26.52;14.10;;;8.20;72.90;;;;;;9175723;19;20622;-69
2022/04/16 01:39:22;;;;;;;27.83;14.60;;;8.10;72.90;;;;;;9175548;19;20025;-70
2022/04/16 01:42:29;;;;;;;23.60;14.90;;;8.10;73.10;;;;;;9176144;19;20022;-69
2022/04/16 01:45:34;;;;;;;25.17;15.30;;;8.10;73.10;;;;;;9177395;19;20547;-69
2022/04/16 01:48:40;;;;;;;31.55;14.35;;;8.10;73.30;;;;;;9174250;19;20019;-70
2022/04/16 01:51:54;;;;;;;28.25;15.32;;;8.10;73.30;;;;;;9178160;19;20018;-70
2022/04/16 01:55:17;;;;;;;23.40;15.20;;;8.00;73.30;;;;;;9177797;19;20118;-70
2022/04/16 01:58:22;;;;;;;31.30;16.27;;;8.00;73.40;;;;;;9174891;19;20018;-69
2022/04/16 02:01:28;;;;;;;24.77;15.02;;;8.00;73.30;;;;;;9176123;19;20018;-70
2022/04/16 02:04:35;;;;;;;33.50;16.35;;;8.00;73.50;;;;;;9174008;19;20131;-70
2022/04/16 02:07:43;;;;;;;32.47;16.20;;;8.00;73.50;;;;;;9174268;19;20467;-70
2022/04/16 02:10:52;;;;;;;28.50;17.02;;;7.90;73.60;;;;;;9176616;19;20047;-70
2022/04/16 02:14:00;;;;;;;35.30;16.75;;;7.90;73.70;;;;;;9176567;19;20406;-70
2022/04/16 02:17:14;;;;;;;35.00;16.98;;;7.80;73.70;;;;;;9174782;19;20018;-70
2022/04/16 02:20:19;;;;;;;27.42;16.85;;;7.80;73.90;;;;;;9175309;19;20711;-70
2022/04/16 02:23:25;;;;;;;34.83;16.83;;;7.90;73.90;;;;;;9172514;19;20015;-69
2022/04/16 02:26:33;;;;;;;33.38;18.40;;;7.80;73.90;;;;;;9171177;19;20026;-71
2022/04/16 02:29:42;;;;;;;30.77;17.52;;;7.80;74.00;;;;;;9171562;19;20360;-69
2022/04/16 02:32:52;;;;;;;33.20;17.33;;;7.80;74.00;;;;;;9176724;19;20015;-69
2022/04/16 02:35:57;;;;;;;34.05;19.42;;;7.80;74.10;;;;;;9174818;19;20030;-69
2022/04/16 02:39:06;;;;;;;34.20;18.92;;;7.80;74.10;;;;;;9174159;19;20018;-69
2022/04/16 02:42:19;;;;;;;37.47;19.40;;;7.80;74.20;;;;;;9173874;19;20018;-70
2022/04/16 02:48:45;;;;;;;33.38;19.38;;;7.70;74.20;;;;;;9174272;19;20626;-69
2022/04/16 02:51:55;;;;;;;31.08;17.70;;;7.70;74.40;;;;;;9173932;19;20037;-70
2022/04/16 02:55:00;;;;;;;35.92;19.17;;;7.70;74.40;;;;;;9175161;19;20023;-69
2022/04/16 02:58:13;;;;;;;35.78;20.25;;;7.70;74.50;;;;;;9173275;19;20030;-69
2022/04/16 03:01:20;;;;;;;31.95;19.40;;;7.70;74.60;;;;;;9172220;19;20491;-69
2022/04/16 03:04:26;;;;;;;43.83;21.27;;;7.60;74.50;;;;;;9176077;19;20022;-71
2022/04/16 03:07:31;;;;;;;39.80;21.92;;;7.70;74.70;;;;;;9171899;19;20014;-69
2022/04/16 03:10:37;;;;;;;41.13;22.00;;;7.60;74.70;;;;;;9174899;19;20025;-69
2022/04/16 03:13:45;;;;;;;40.17;22.15;;;7.60;74.80;;;;;;9171059;19;20018;-70
2022/04/16 03:20:10;;;;;;;41.13;22.85;;;7.60;75.10;;;;;;9175486;19;20025;-69
2022/04/16 03:23:15;;;;;;;43.53;22.20;;;7.60;75.10;;;;;;9171182;19;20015;-70
2022/04/16 03:26:21;;;;;;;44.00;23.35;;;7.60;75.20;;;;;;9173641;19;20025;-69
2022/04/16 03:29:34;;;;;;;40.28;22.60;;;7.70;75.20;;;;;;9169312;19;20070;-69
2022/04/16 03:32:44;;;;;;;42.92;22.85;;;7.70;75.40;;;;;;9173926;19;20026;-69
2022/04/16 03:35:49;;;;;;;42.25;23.25;;;7.70;75.30;;;;;;9173706;19;20026;-70
2022/04/16 03:38:54;;;;;;;36.65;22.27;;;7.70;75.30;;;;;;9172522;19;20017;-70
2022/04/16 03:42:01;;;;;;;42.92;22.08;;;7.70;75.30;;;;;;9173262;19;20032;-70
2022/04/16 03:45:10;;;;;;;40.05;20.67;;;7.70;75.30;;;;;;9173240;19;20041;-69
2022/04/16 03:48:16;;;;;;;41.00;21.70;;;7.70;75.40;;;;;;9172300;19;20019;-70
2022/04/16 03:51:22;;;;;;;41.88;21.90;;;7.70;75.40;;;;;;9170953;19;20059;-69
2022/04/16 04:01:20;;;;;;;37.60;20.65;;;7.70;75.40;;;;;;9171940;19;20022;-70
2022/04/16 04:04:25;;;;;;;38.35;20.15;;;7.70;75.30;;;;;;9168638;19;20020;-71
2022/04/16 04:07:33;;;;;;;43.17;22.58;;;7.70;75.40;;;;;;9169327;19;20359;-70
2022/04/16 04:10:41;;;;;;;38.78;20.52;;;7.70;75.40;;;;;;9170297;19;20015;-69
2022/04/16 04:13:49;;;;;;;37.85;20.67;;;7.70;75.40;;;;;;9169756;19;20015;-69
2022/04/16 04:16:59;;;;;;;34.95;19.08;;;7.70;75.50;;;;;;9170211;19;20018;-70
2022/04/16 04:20:05;;;;;;;35.33;19.75;;;7.60;75.60;;;;;;9172257;19;20015;-70
2022/04/16 04:23:10;;;;;;;31.85;19.13;;;7.70;75.60;;;;;;9170311;19;20022;-69
2022/04/16 04:26:15;;;;;;;34.22;18.83;;;7.60;75.60;;;;;;9170320;19;20025;-69
2022/04/16 04:29:20;;;;;;;31.83;18.80;;;7.60;75.60;;;;;;9171841;19;20026;-69
2022/04/16 04:32:28;;;;;;;33.15;18.42;;;7.60;75.70;;;;;;9171388;19;20022;-69
2022/04/16 04:35:33;;;;;;;34.25;18.70;;;7.60;75.80;;;;;;9172438;19;20018;-69
2022/04/16 04:38:38;;;;;;;30.70;17.85;;;7.60;75.90;;;;;;9169217;19;20019;-71
2022/04/16 04:41:44;;;;;;;30.05;18.15;;;7.60;76.00;;;;;;9170982;19;20018;-69
2022/04/16 04:44:50;;;;;;;29.98;18.45;;;7.60;76.00;;;;;;9171668;19;20019;-69
2022/04/16 04:48:02;;;;;;;33.70;18.15;;;7.60;76.10;;;;;;9168896;19;20011;-69
2022/04/16 04:51:07;;;;;;;32.15;18.58;;;7.60;76.20;;;;;;9178732;19;20014;-69
2022/04/16 04:54:24;;;;;;;33.55;17.80;;;7.60;76.20;;;;;;9176610;19;20041;-68
2022/04/16 04:57:30;;;;;;;31.90;18.08;;;7.70;76.40;;;;;;9179118;19;20022;-70
2022/04/16 05:00:37;;;;;;;31.63;17.48;;;7.70;76.20;;;;;;9177111;19;20059;-69
2022/04/16 05:03:44;;;;;;;29.08;16.83;;;7.70;76.30;;;;;;9178130;19;20022;-69
2022/04/16 05:06:49;;;;;;;27.35;16.60;;;7.70;76.40;;;;;;9176103;19;20018;-69
2022/04/16 05:10:00;;;;;;;25.58;16.25;;;7.80;76.40;;;;;;9180051;19;20411;-68
2022/04/16 05:13:05;;;;;;;26.63;16.75;;;7.80;76.40;;;;;;9178542;19;20783;-70
2022/04/16 05:16:10;;;;;;;26.58;16.17;;;7.90;76.50;;;;;;9174961;19;20018;-68
2022/04/16 05:19:20;;;;;;;35.53;17.58;;;7.90;76.50;;;;;;9175639;19;20034;-68
2022/04/16 05:22:27;;;;;;;27.38;16.23;;;8.00;76.60;;;;;;9175917;19;20059;-69
2022/04/16 05:25:34;;;;;;;30.95;17.30;;;7.90;76.50;;;;;;9177193;19;20019;-70
2022/04/16 05:28:42;;;;;;;30.15;15.82;;;8.00;76.50;;;;;;9179052;19;20018;-70
2022/04/16 05:31:50;;;;;;;29.92;17.30;;;8.00;76.50;;;;;;9179718;19;20022;-69
2022/04/16 05:35:00;;;;;;;29.83;16.17;;;8.10;76.50;;;;;;9182693;19;20018;-69
2022/04/16 05:38:17;;;;;;;30.48;17.42;;;8.10;76.60;;;;;;9182325;19;20018;-70
2022/04/16 05:41:23;;;;;;;31.60;15.82;;;8.10;76.50;;;;;;9181315;19;20037;-69
2022/04/16 05:44:32;;;;;;;25.63;15.90;;;8.10;76.50;;;;;;9183592;19;20022;-69
2022/04/16 05:47:38;;;;;;;28.10;15.68;;;8.20;76.60;;;;;;9180602;19;20034;-69
2022/04/16 05:50:46;;;;;;;26.73;16.90;;;8.20;76.60;;;;;;9180911;19;20021;-69
2022/04/16 05:53:55;;;;;;;32.20;17.65;;;8.20;76.70;;;;;;9183742;19;20050;-69
2022/04/16 05:57:03;;;;;;;28.48;17.45;;;8.30;76.80;;;;;;9181091;19;20030;-70
2022/04/16 06:00:13;;;;;;;33.72;17.60;;;8.40;76.90;;;;;;9178996;19;20448;-69
2022/04/16 06:03:22;;;;;;;27.83;17.30;;;8.40;77.00;;;;;;9182188;19;20053;-70
2022/04/16 06:06:31;;;;;;;32.50;18.08;;;8.50;77.00;;;;;;9180001;19;20014;-69
2022/04/16 06:09:45;;;;;;;29.40;17.08;;;8.60;77.20;;;;;;9177489;19;20073;-69
2022/04/16 06:12:53;;;;;;;27.58;16.65;;;8.70;77.20;;;;;;9178811;19;20018;-69
2022/04/16 06:15:59;;;;;;;27.63;17.08;;;8.80;77.30;;;;;;9179385;19;20015;-70
2022/04/16 06:19:06;;;;;;;24.83;15.85;;;8.90;77.20;;;;;;9180680;19;20018;-70
2022/04/16 06:22:17;;;;;;;28.67;15.43;;;9.00;77.30;;;;;;9180349;19;20015;-68
2022/04/16 06:25:24;;;;;;;26.65;15.45;;;9.20;77.40;;;;;;9182164;19;20018;-70
2022/04/16 06:28:29;;;;;;;30.63;16.50;;;9.30;77.30;;;;;;9180279;19;20022;-69
2022/04/16 06:31:35;;;;;;;29.60;15.70;;;9.40;77.20;;;;;;9174697;19;20022;-69
2022/04/16 06:34:42;;;;;;;32.53;15.25;;;9.50;77.20;;;;;;9181081;19;20463;-70
2022/04/16 06:37:49;;;;;;;30.00;16.23;;;9.60;77.10;;;;;;9178581;19;20022;-70
2022/04/16 06:40:54;;;;;;;31.00;16.10;;;9.70;77.00;;;;;;9178690;19;20010;-69
2022/04/16 06:43:59;;;;;;;31.05;16.40;;;9.80;77.50;;;;;;9180600;19;20022;-69
2022/04/16 06:47:07;;;;;;;30.40;15.98;;;9.80;76.80;;;;;;9178713;19;20818;-70
2022/04/16 06:50:15;;;;;;;33.65;15.93;;;9.90;76.70;;;;;;9179554;19;20052;-68
2022/04/16 06:53:28;;;;;;;26.92;14.63;;;9.90;76.70;;;;;;9179775;19;20113;-70
2022/04/16 06:56:41;;;;;;;25.45;13.40;;;10.00;76.70;;;;;;9178548;19;20014;-69
2022/04/16 06:59:50;;;;;;;26.65;13.77;;;10.00;76.60;;;;;;9179991;19;20014;-68
2022/04/16 07:02:56;;;;;;;24.70;13.32;;;10.10;76.60;;;;;;9176492;19;20024;-69
2022/04/16 07:06:02;;;;;;;31.17;13.43;;;10.10;76.50;;;;;;9176866;19;20478;-69
2022/04/16 07:09:10;;;;;;;25.38;12.95;;;10.20;76.50;;;;;;9174305;19;20018;-69
2022/04/16 07:12:15;;;;;;;25.10;12.75;;;10.20;76.50;;;;;;9178331;19;20034;-69
2022/04/16 07:15:23;;;;;;;23.38;12.90;;;10.30;76.50;;;;;;9178294;19;20028;-69
2022/04/16 07:18:29;;;;;;;29.15;12.85;;;10.40;76.40;;;;;;9175979;19;20469;-70
2022/04/16 07:21:34;;;;;;;24.73;12.15;;;10.50;76.40;;;;;;9180207;19;20021;-70
2022/04/16 07:24:51;;;;;;;29.30;12.82;;;10.50;76.30;;;;;;9178799;19;20495;-69
2022/04/16 07:27:56;;;;;;;19.55;11.05;;;10.70;76.40;;;;;;9175533;19;20339;-68
2022/04/16 07:31:09;;;;;;;21.23;12.63;;;10.70;76.20;;;;;;9173658;19;20006;-69
2022/04/16 07:34:17;;;;;;;25.77;10.90;;;10.80;76.10;;;;;;9179155;19;20010;-71
2022/04/16 07:37:22;;;;;;;22.50;11.45;;;11.00;76.30;;;;;;9176343;19;20101;-68
2022/04/16 07:40:34;;;;;;;19.80;10.75;;;11.10;75.90;;;;;;9177451;19;20022;-70
2022/04/16 07:43:39;;;;;;;23.80;10.60;;;11.10;75.70;;;;;;9176469;19;20018;-70
2022/04/16 07:46:49;;;;;;;22.85;10.95;;;11.10;75.60;;;;;;9178316;19;20539;-69
2022/04/16 07:49:59;;;;;;;21.45;9.95;;;11.30;75.50;;;;;;9173266;19;20025;-70
2022/04/16 07:53:08;;;;;;;18.77;9.50;;;11.30;75.30;;;;;;9177702;19;20018;-70
2022/04/16 07:56:16;;;;;;;20.90;9.85;;;11.40;75.30;;;;;;9179814;19;20015;-69
2022/04/16 07:59:21;;;;;;;19.50;8.93;;;11.40;75.10;;;;;;9178635;19;20021;-69
2022/04/16 08:02:28;;;;;;;16.45;10.30;;;11.50;75.10;;;;;;9177928;19;20330;-69
2022/04/16 08:05:42;;;;;;;21.73;8.63;;;11.70;75.00;;;;;;9179768;19;20049;-69
2022/04/16 08:08:47;;;;;;;17.17;8.68;;;11.80;74.90;;;;;;9174769;19;20078;-69
2022/04/16 08:12:07;;;;;;;17.35;8.73;;;12.00;74.90;;;;;;9175911;19;20089;-69
2022/04/16 08:15:12;;;;;;;18.25;8.35;;;12.10;74.70;;;;;;9174364;19;20018;-69
2022/04/16 08:18:18;;;;;;;15.10;8.45;;;12.20;74.50;;;;;;9178969;19;20497;-69
2022/04/16 08:21:29;;;;;;;16.35;8.18;;;12.40;74.30;;;;;;9179624;19;20175;-69
2022/04/16 08:24:45;;;;;;;16.02;7.85;;;12.50;74.00;;;;;;9186954;19;20030;-69
2022/04/16 08:28:08;;;;;;;16.50;7.93;;;12.60;73.80;;;;;;9187641;19;20389;-69
2022/04/16 08:31:22;;;;;;;17.98;7.88;;;12.70;73.60;;;;;;9185903;19;20032;-69
2022/04/16 08:34:30;;;;;;;12.68;6.80;;;12.80;73.60;;;;;;9189052;19;20010;-70
2022/04/16 08:37:40;;;;;;;15.77;6.47;;;12.90;73.50;;;;;;9185737;19;20029;-69
2022/04/16 08:40:45;;;;;;;11.90;6.10;;;13.10;73.20;;;;;;9188950;19;20029;-69
2022/04/16 08:44:00;;;;;;;14.15;6.60;;;13.30;73.10;;;;;;9188740;19;20021;-69
2022/04/16 08:47:15;;;;;;;11.80;6.55;;;13.40;72.70;;;;;;9188478;19;20043;-70
2022/04/16 08:50:20;;;;;;;12.25;6.03;;;13.60;72.60;;;;;;9183810;19;20014;-71
2022/04/16 08:53:38;;;;;;;10.68;5.20;;;13.70;72.30;;;;;;9188335;19;20014;-69
2022/04/16 08:56:46;;;;;;;12.25;4.85;;;13.90;72.00;;;;;;9187620;19;20018;-68
2022/04/16 08:59:57;;;;;;;9.98;5.10;;;14.10;71.80;;;;;;9189930;19;20014;-69
2022/04/16 09:03:06;;;;;;;9.32;4.90;;;14.30;71.40;;;;;;9189479;19;20938;-69
2022/04/16 09:06:24;;;;;;;8.15;4.20;;;14.50;71.10;;;;;;9189513;19;20136;-69
2022/04/16 09:09:30;;;;;;;10.70;4.85;;;14.70;70.40;;;;;;9185742;19;20015;-69
2022/04/16 09:12:39;;;;;;;10.15;4.50;;;14.80;70.40;;;;;;9187649;19;20067;-69
2022/04/16 09:15:50;;;;;;;11.45;4.72;;;14.90;70.00;;;;;;9188771;19;20006;-70
2022/04/16 09:18:59;;;;;;;10.55;5.00;;;15.10;69.90;;;;;;9188777;19;20768;-68
2022/04/16 09:22:04;;;;;;;8.70;4.45;;;15.30;69.70;;;;;;9187044;19;20010;-70
2022/04/16 09:25:19;;;;;;;8.32;4.28;;;15.40;69.40;;;;;;9187530;19;20015;-69
2022/04/16 09:28:26;;;;;;;8.77;4.30;;;15.60;68.70;;;;;;9187184;19;20018;-70
2022/04/16 09:31:35;;;;;;;9.55;4.40;;;15.70;68.70;;;;;;9182425;19;20014;-69
2022/04/16 09:34:49;;;;;;;8.23;4.20;;;15.80;68.30;;;;;;9181642;19;20074;-68
2022/04/16 09:37:57;;;;;;;7.50;4.60;;;16.00;67.80;;;;;;9187555;19;20471;-69
2022/04/16 09:41:08;;;;;;;5.18;3.10;;;16.10;68.60;;;;;;9188583;19;20011;-68
2022/04/16 09:44:21;;;;;;;5.85;3.22;;;16.20;67.50;;;;;;9186161;19;20023;-69
2022/04/16 09:47:36;;;;;;;12.18;3.08;;;16.40;66.80;;;;;;9184799;19;20023;-68
2022/04/16 09:50:42;;;;;;;4.07;2.47;;;16.40;66.60;;;;;;9179976;19;20026;-69
2022/04/16 09:53:49;;;;;;;6.72;2.92;;;16.50;66.60;;;;;;9182125;19;20014;-73
2022/04/16 09:57:01;;;;;;;6.30;2.85;;;16.60;66.30;;;;;;9184631;19;20014;-69
2022/04/16 10:00:11;;;;;;;5.65;2.95;;;16.70;66.00;;;;;;9185926;19;20025;-69
2022/04/16 10:03:19;;;;;;;7.63;2.78;;;16.80;65.70;;;;;;9186028;19;20514;-68
2022/04/16 10:06:24;;;;;;;5.45;2.75;;;16.80;65.20;;;;;;9186131;19;20012;-70
2022/04/16 10:09:30;;;;;;;4.95;2.80;;;16.80;65.00;;;;;;9183046;19;20402;-69
2022/04/16 10:16:15;;;;;;;5.93;2.58;;;16.90;64.40;;;;;;9184059;19;20015;-72
2022/04/16 10:19:26;;;;;;;5.30;2.55;;;16.90;63.40;;;;;;9186970;19;20022;-69
2022/04/16 10:22:34;;;;;;;5.75;2.72;;;17.00;63.90;;;;;;9186917;19;20602;-69
2022/04/16 10:25:43;;;;;;;6.88;2.33;;;17.00;63.70;;;;;;9186542;19;20011;-68
2022/04/16 10:32:20;;;;;;;4.47;2.78;;;17.10;62.80;;;;;;9177086;19;20018;-69
2022/04/16 10:35:30;;;;;;;4.18;2.25;;;17.10;62.60;;;;;;9184142;19;20019;-69
2022/04/16 10:38:37;;;;;;;3.85;2.35;;;17.20;62.70;;;;;;9183974;19;20018;-69
2022/04/16 10:41:42;;;;;;;7.78;2.50;;;17.20;62.50;;;;;;9185210;19;20097;-69
2022/04/16 10:44:53;;;;;;;4.20;2.28;;;17.20;62.30;;;;;;9183472;19;20014;-69
2022/04/16 10:48:05;;;;;;;6.47;2.70;;;17.20;62.00;;;;;;9181916;19;20014;-68
2022/04/16 10:51:13;;;;;;;5.25;2.38;;;17.30;61.90;;;;;;9181803;19;20025;-68
2022/04/16 10:54:27;;;;;;;6.00;2.55;;;17.30;61.50;;;;;;9179485;19;20022;-68
2022/04/16 10:57:33;;;;;;;5.75;2.33;;;17.40;61.40;;;;;;9182714;19;20014;-69
2022/04/16 11:00:40;;;;;;;6.15;2.05;;;17.40;61.20;;;;;;9183661;19;20011;-69
2022/04/16 11:03:48;;;;;;;4.57;2.22;;;17.50;60.90;;;;;;9183917;19;20010;-69
2022/04/16 11:07:00;;;;;;;4.78;2.42;;;17.50;60.60;;;;;;9182868;19;20019;-69
2022/04/16 11:10:06;;;;;;;7.45;2.20;;;17.50;60.00;;;;;;9181634;19;20014;-69
2022/04/16 11:13:13;;;;;;;5.15;1.98;;;17.60;60.20;;;;;;9180415;19;20085;-69
2022/04/16 11:16:23;;;;;;;2.80;1.95;;;17.60;60.00;;;;;;9180998;19;20018;-69
2022/04/16 11:19:29;;;;;;;3.47;2.20;;;17.70;59.60;;;;;;9181654;19;20018;-69
2022/04/16 11:22:37;;;;;;;5.32;2.30;;;17.70;59.60;;;;;;9180860;19;20014;-68
2022/04/16 11:35:40;;;;;;;4.63;1.70;;;17.80;58.80;;;;;;9178331;19;20025;-69
2022/04/16 11:38:48;;;;;;;6.38;1.60;;;17.80;58.70;;;;;;9179518;19;20015;-69
2022/04/16 11:41:54;;;;;;;2.38;1.58;;;17.90;58.20;;;;;;9178155;19;20429;-68
2022/04/16 11:44:59;;;;;;;2.58;1.65;;;17.80;58.10;;;;;;9179248;19;20026;-71
2022/04/16 11:48:06;;;;;;;4.13;1.48;;;17.90;58.00;;;;;;9180568;19;20010;-71
2022/04/16 11:51:14;;;;;;;2.35;1.58;;;18.00;57.80;;;;;;9178769;19;20014;-72
2022/04/16 11:54:31;;;;;;;2.83;1.73;;;18.00;57.40;;;;;;9180345;19;20015;-69
2022/04/16 11:57:37;;;;;;;3.83;1.52;;;18.00;56.80;;;;;;9180478;19;20022;-70
2022/04/16 12:00:50;;;;;;;4.03;1.73;;;18.10;57.30;;;;;;9189910;19;20507;-69
2022/04/16 12:03:56;;;;;;;2.40;1.40;;;18.10;56.50;;;;;;9182153;19;20034;-71
2022/04/16 12:07:01;;;;;;;7.18;1.88;;;18.10;56.80;;;;;;9186129;19;20015;-71
2022/04/16 12:10:17;;;;;;;9.05;1.92;;;18.10;56.40;;;;;;9190216;19;20015;-72
2022/04/16 12:13:37;;;;;;;9.15;2.10;;;18.20;56.00;;;;;;9192083;19;20018;-75
2022/04/16 12:16:44;;;;;;;6.45;1.63;;;18.20;55.70;;;;;;9188947;19;20015;-73
2022/04/16 12:19:57;;;;;;;2.95;1.60;;;18.20;55.70;;;;;;9188954;19;20017;-70
2022/04/16 12:23:05;;;;;;;4.53;1.80;;;18.20;56.10;;;;;;9186121;19;20090;-70
2022/04/16 12:26:14;;;;;;;2.05;1.33;;;18.20;55.60;;;;;;9183595;19;21091;-72
2022/04/16 12:29:20;;;;;;;3.83;1.38;;;18.20;55.20;;;;;;9184953;19;20596;-73
2022/04/16 12:32:29;;;;;;;3.22;2.10;;;18.20;55.10;;;;;;9182949;19;20066;-73
2022/04/16 12:35:38;;;;;;;2.05;1.30;;;18.20;55.00;;;;;;9186331;19;20025;-74
2022/04/16 12:38:45;;;;;;;3.33;1.40;;;18.10;54.60;;;;;;9184555;19;20014;-72
2022/04/16 12:41:54;;;;;;;14.52;2.90;;;18.20;54.60;;;;;;9188020;19;20014;-71
2022/04/16 12:45:00;;;;;;;2.60;1.55;;;18.10;54.40;;;;;;9189836;19;20535;-76
2022/04/16 12:48:11;;;;;;;11.75;1.92;;;18.10;54.40;;;;;;9189472;19;20018;-73
2022/04/16 12:51:20;;;;;;;2.88;1.63;;;18.10;54.20;;;;;;9186058;19;20018;-72
2022/04/16 12:54:27;;;;;;;3.40;1.27;;;18.10;54.20;;;;;;9189314;19;20081;-75
2022/04/16 12:57:35;;;;;;;2.63;1.42;;;18.10;53.80;;;;;;9189245;19;20344;-71
2022/04/16 13:00:40;;;;;;;1.77;1.38;;;18.00;53.50;;;;;;9190900;19;20349;-70
2022/04/16 13:03:46;;;;;;;5.25;1.35;;;18.00;53.60;;;;;;9187967;19;20022;-73
2022/04/16 13:06:55;;;;;;;3.92;1.40;;;18.00;53.50;;;;;;9188680;19;20526;-76
2022/04/16 13:10:02;;;;;;;4.97;1.00;;;18.00;53.50;;;;;;9184516;19;20021;-71
2022/04/16 13:13:10;;;;;;;373.80;21.27;;;18.00;53.30;;;;;;9186926;19;20014;-59
2022/04/16 13:16:15;;;;;;;2.20;1.60;;;18.00;53.00;;;;;;9189153;19;20915;-61
2022/04/16 13:19:20;;;;;;;5.47;1.50;;;18.30;52.50;;;;;;9186372;19;20444;-61
2022/04/16 13:22:25;;;;;;;6.30;1.38;;;18.40;51.80;;;;;;9184521;19;20502;-61
2022/04/16 13:25:33;;;;;;;3.35;1.55;;;18.20;51.50;;;;;;9187694;19;20014;-59
2022/04/16 13:28:42;;;;;;;4.70;1.50;;;;;;;;;;9187865;19;20011;-58
2022/04/16 13:31:47;;;;;;;4.97;1.65;;;17.90;51.00;;;;;;9173159;19;20484;-59
2022/04/16 13:34:52;;;;;;;7.13;1.55;;;17.80;51.60;;;;;;9181380;19;20051;-59
2022/04/16 13:37:57;;;;;;;5.00;1.77;;;17.70;51.50;;;;;;9181152;19;20359;-57
2022/04/16 13:44:22;;;;;;;2.65;1.58;;;17.40;50.80;;;;;;9180013;19;20041;-56
2022/04/16 13:47:27;;;;;;;3.85;1.50;;;17.30;50.70;;;;;;9180338;19;20026;-58
2022/04/16 13:50:32;;;;;;;6.38;1.23;;;17.20;51.10;;;;;;9178480;19;20011;-58
2022/04/16 13:53:37;;;;;;;3.45;1.88;;;17.10;50.90;;;;;;9180424;19;20038;-57
2022/04/16 13:56:42;;;;;;;5.80;1.10;;;17.10;51.10;;;;;;9179479;19;20037;-57
2022/04/16 13:59:50;;;;;;;6.93;0.95;;;17.10;51.10;;;;;;9181504;19;20018;-59
2022/04/16 14:02:55;;;;;;;4.13;1.35;;;17.00;50.50;;;;;;9180914;19;20010;-57
2022/04/16 14:06:00;;;;;;;1.48;1.13;;;17.00;50.30;;;;;;9179964;19;20020;-58
2022/04/16 14:09:05;;;;;;;2.35;1.38;;;17.00;50.30;;;;;;9176557;19;20030;-57
2022/04/16 14:12:11;;;;;;;4.18;1.48;;;16.90;50.30;;;;;;9179065;19;20591;-57
2022/04/16 14:15:19;;;;;;;3.92;1.40;;;;;;;;;;9176174;19;20018;-63
2022/04/16 14:18:24;;;;;;;2.22;1.58;;;16.90;49.80;;;;;;9178417;19;20025;-67
2022/04/16 14:21:30;;;;;;;3.20;1.75;;;16.80;50.80;;;;;;9176873;19;20018;-70
2022/04/16 14:24:35;;;;;;;1.98;1.60;;;16.80;51.10;;;;;;9179111;19;20018;-63
2022/04/16 14:27:41;;;;;;;4.15;1.48;;;16.70;51.40;;;;;;9178605;19;20014;-67
2022/04/16 14:30:48;;;;;;;1.65;1.48;;;16.70;51.50;;;;;;9174605;19;20026;-70
2022/04/16 14:33:54;;;;;;;1.73;1.42;;;16.70;51.50;;;;;;9177718;19;20029;-68
2022/04/16 14:36:59;;;;;;;5.28;1.70;;;16.70;51.60;;;;;;9179217;19;20260;-65
2022/04/16 14:40:04;;;;;;;1.70;1.40;;;16.70;51.60;;;;;;9177688;19;20026;-66
2022/04/16 14:43:11;;;;;;;3.55;1.70;;;16.70;51.60;;;;;;9183049;19;20014;-66
2022/04/16 14:46:19;;;;;;;5.13;1.48;;;16.70;51.50;;;;;;9183173;19;20475;-66
2022/04/16 14:49:24;;;;;;;2.42;1.42;;;16.70;51.50;;;;;;9184715;19;20381;-66
2022/04/16 14:52:29;;;;;;;3.03;2.20;;;16.70;51.60;;;;;;9182238;19;20007;-66
2022/04/16 14:55:36;;;;;;;2.55;1.70;;;16.70;51.50;;;;;;9180751;19;20010;-67
2022/04/16 14:58:41;;;;;;;5.05;1.45;;;16.70;51.50;;;;;;9176957;19;20038;-66
2022/04/16 15:01:49;;;;;;;2.55;1.77;;;16.70;51.40;;;;;;9176808;19;20025;-67
2022/04/16 15:04:54;;;;;;;4.72;1.73;;;16.60;51.30;;;;;;9174328;19;20015;-66
2022/04/16 15:07:59;;;;;;;4.45;2.30;;;16.60;51.30;;;;;;9174995;19;20372;-65
2022/04/16 15:11:04;;;;;;;5.38;1.90;;;16.60;51.40;;;;;;9169312;19;20041;-66
2022/04/16 15:14:14;;;;;;;8.30;1.30;;;16.60;51.50;;;;;;9171388;19;20010;-66
2022/04/16 15:17:24;;;;;;;1.48;1.27;;;16.60;51.40;;;;;;9170294;19;20793;-65
2022/04/16 15:20:31;;;;;;;2.55;1.50;;;16.60;51.20;;;;;;9170572;19;20010;-67
2022/04/16 15:23:36;;;;;;;2.15;1.33;;;16.60;51.20;;;;;;9167738;19;20032;-66
2022/04/16 15:26:41;;;;;;;7.75;1.70;;;16.60;51.10;;;;;;9171738;19;20372;-66
2022/04/16 15:29:46;;;;;;;2.78;1.40;;;16.60;51.00;;;;;;9168187;19;20038;-66
2022/04/16 15:32:54;;;;;;;3.05;1.55;;;16.60;50.90;;;;;;9167375;19;20022;-66
2022/04/16 15:35:59;;;;;;;2.20;1.48;;;16.60;50.90;;;;;;9171425;19;20019;-65
2022/04/16 15:39:06;;;;;;;5.78;1.95;;;16.60;50.90;;;;;;9160056;19;20026;-66
2022/04/16 15:42:10;;;;;;;6.35;1.88;;;16.60;50.80;;;;;;9169689;19;20018;-65
2022/04/16 15:45:16;;;;;;;3.85;1.48;;;16.50;50.90;;;;;;9162823;19;20051;-65
2022/04/16 15:48:23;;;;;;;6.15;1.67;;;16.50;51.00;;;;;;9168962;19;20027;-65
2022/04/16 15:51:29;;;;;;;4.78;1.80;;;16.40;50.90;;;;;;9164301;19;20019;-65
2022/04/16 15:54:33;;;;;;;3.05;1.90;;;16.40;51.00;;;;;;9168656;19;20075;-66
2022/04/16 15:57:38;;;;;;;7.45;1.90;;;16.40;50.50;;;;;;9167151;19;20018;-66
2022/04/16 16:00:45;;;;;;;2.03;1.48;;;16.40;50.90;;;;;;9168038;19;20022;-66
2022/04/16 16:03:53;;;;;;;2.95;1.27;;;16.30;50.80;;;;;;9168405;19;20047;-66
2022/04/16 16:06:58;;;;;;;3.42;1.48;;;16.30;50.70;;;;;;9170550;19;20018;-66
2022/04/16 16:10:03;;;;;;;2.50;1.38;;;16.30;50.80;;;;;;9162427;19;21515;-66
2022/04/16 16:13:09;;;;;;;3.15;1.58;;;16.20;50.70;;;;;;9163080;19;20051;-66
2022/04/16 16:16:14;;;;;;;4.63;2.00;;;16.20;50.70;;;;;;9167956;19;20654;-65
2022/04/16 16:19:22;;;;;;;1.98;1.65;;;16.20;50.70;;;;;;9162598;19;20025;-66
2022/04/16 16:22:28;;;;;;;3.70;1.67;;;16.20;50.70;;;;;;9166546;19;20019;-65
2022/04/16 16:25:34;;;;;;;4.00;2.13;;;16.10;50.80;;;;;;9167707;19;20098;-66
2022/04/16 16:28:39;;;;;;;3.03;1.80;;;16.10;50.80;;;;;;9170488;19;20026;-67
2022/04/16 16:31:44;;;;;;;2.58;1.65;;;16.00;50.80;;;;;;9163618;19;20045;-65
2022/04/16 16:34:52;;;;;;;4.28;1.73;;;16.00;50.80;;;;;;9162940;19;20010;-66
2022/04/16 16:37:57;;;;;;;3.20;1.70;;;15.90;50.70;;;;;;9166730;19;20085;-66
2022/04/16 16:41:02;;;;;;;2.97;1.48;;;15.90;50.70;;;;;;9169421;19;20025;-66
2022/04/16 16:44:07;;;;;;;3.50;1.50;;;15.90;50.60;;;;;;9173910;19;20019;-66